createdAt,value
2023-02-03T00:00:12.452Z,74.54
2023-02-03T00:03:14.462Z,74.12
2023-02-03T00:06:17.422Z,74.03
2023-02-03T00:09:19.351Z,74.18
2023-02-03T00:12:21.923Z,74.72
2023-02-03T00:15:24.474Z,75.14
2023-02-03T00:18:26.440Z,75.43
2023-02-03T00:21:28.998Z,76.88
2023-02-03T00:24:30.374Z,76.68
2023-02-03T00:27:33.396Z,77.26
2023-02-03T00:30:35.303Z,76.99
2023-02-03T00:33:39.547Z,77.83
2023-02-03T00:36:43.152Z,78.84
2023-02-03T00:39:45.715Z,78.70
2023-02-03T00:42:46.967Z,78.05
2023-02-03T00:45:49.567Z,78.56
2023-02-03T00:48:51.551Z,78.88
2023-02-03T00:51:54.265Z,79.64
2023-02-03T00:54:56.863Z,78.22
2023-02-03T00:57:58.157Z,77.85
2023-02-03T01:01:00.758Z,78.64
2023-02-03T01:04:02.941Z,79.84
2023-02-03T01:07:05.607Z,79.77
2023-02-03T01:10:07.749Z,78.95
2023-02-03T01:13:10.405Z,79.07
2023-02-03T01:16:13.951Z,79.58
2023-02-03T01:26:03.943Z,79.47
2023-02-03T01:29:05.318Z,79.35
2023-02-03T01:32:08.003Z,79.37
2023-02-03T01:35:09.959Z,79.08
2023-02-03T01:38:12.475Z,78.70
2023-02-03T01:41:16.509Z,78.13
2023-02-03T01:44:51.631Z,79.65
2023-02-03T01:47:55.739Z,78.45
2023-02-03T01:51:01.201Z,79.04
2023-02-03T01:54:04.508Z,79.66
2023-02-03T01:57:14.433Z,79.10
2023-02-03T02:00:16.411Z,79.62
2023-02-03T02:03:21.860Z,79.65
2023-02-03T02:06:23.859Z,79.54
2023-02-03T02:09:27.756Z,78.44
2023-02-03T02:12:29.049Z,77.89
2023-02-03T02:15:41.957Z,78.18
2023-02-03T02:18:57.690Z,77.11
2023-02-03T02:22:10.196Z,77.82
2023-02-03T02:25:35.518Z,76.50
2023-02-03T02:29:09.060Z,78.49
2023-02-03T02:32:23.932Z,78.26
2023-02-03T02:35:36.969Z,78.84
2023-02-03T02:38:58.495Z,78.03
2023-02-03T02:42:09.172Z,78.00
2023-02-03T02:45:17.798Z,78.43
2023-02-03T02:48:27.710Z,78.14
2023-02-03T02:51:31.438Z,78.45
2023-02-03T02:54:38.614Z,78.69
2023-02-03T02:57:41.652Z,78.55
2023-02-03T03:00:45.377Z,78.58
2023-02-03T03:03:47.474Z,79.12
2023-02-03T03:06:55.163Z,79.35
2023-02-03T03:10:01.790Z,79.11
2023-02-03T03:13:08.843Z,79.85
2023-02-03T03:16:12.872Z,80.02
2023-02-03T03:19:18.934Z,79.71
2023-02-03T03:22:25.868Z,79.81
2023-02-03T03:25:36.079Z,79.50
2023-02-03T03:28:46.596Z,79.29
2023-02-03T03:31:48.633Z,80.63
2023-02-03T03:34:53.256Z,80.81
2023-02-03T03:37:59.584Z,78.83
2023-02-03T03:41:06.724Z,79.89
2023-02-03T03:44:15.159Z,81.24
2023-02-03T03:47:23.098Z,81.48
2023-02-03T03:50:29.825Z,80.78
2023-02-03T03:53:34.394Z,80.07
2023-02-03T03:56:41.547Z,81.11
2023-02-03T03:59:48.658Z,82.38
2023-02-03T04:02:53.480Z,83.12
2023-02-03T04:05:56.695Z,83.50
2023-02-03T04:08:58.008Z,82.97
2023-02-03T04:12:03.143Z,82.84
2023-02-03T04:15:06.287Z,82.49
2023-02-03T04:18:07.675Z,82.27
2023-02-03T04:21:10.888Z,83.63
2023-02-03T04:24:12.396Z,83.76
2023-02-03T04:27:15.098Z,82.65
2023-02-03T04:30:17.643Z,83.04
2023-02-03T04:33:20.172Z,82.52
2023-02-03T04:36:22.149Z,84.03
2023-02-03T04:39:24.716Z,83.58
2023-02-03T04:42:26.201Z,84.34
2023-02-03T04:45:28.864Z,84.18
2023-02-03T04:48:30.191Z,85.58
2023-02-03T04:51:33.439Z,85.00
2023-02-03T04:54:34.848Z,84.62
2023-02-03T04:57:37.330Z,85.15
2023-02-03T05:00:39.934Z,85.92
2023-02-03T05:03:41.296Z,86.44
2023-02-03T05:06:44.578Z,86.90
2023-02-03T05:09:45.856Z,87.03
2023-02-03T05:12:48.414Z,86.90
2023-02-03T05:15:51.093Z,86.38
2023-02-03T05:18:52.411Z,86.80
2023-02-03T05:25:15.651Z,87.00
2023-02-03T05:28:18.239Z,87.65
2023-02-03T05:31:21.012Z,88.06
2023-02-03T05:34:23.612Z,87.33
2023-02-03T05:37:25.677Z,87.24
2023-02-03T05:40:46.911Z,87.18
2023-02-03T05:43:48.216Z,87.93
2023-02-03T05:46:52.124Z,87.85
2023-02-03T05:49:54.734Z,88.04
2023-02-03T05:52:56.666Z,88.38
2023-02-03T05:55:58.033Z,88.22
2023-02-03T05:58:59.370Z,87.62
2023-02-03T06:02:01.921Z,86.92
2023-02-03T06:05:04.646Z,87.30
2023-02-03T06:08:06.937Z,88.41
2023-02-03T06:11:09.503Z,88.71
2023-02-03T06:14:10.911Z,88.20
2023-02-03T06:17:12.236Z,88.89
2023-02-03T06:20:16.931Z,88.41
2023-02-03T06:23:19.118Z,88.36
2023-02-03T06:26:21.812Z,88.05
2023-02-03T06:29:23.138Z,88.97
2023-02-03T06:32:24.551Z,88.80
2023-02-03T06:35:25.817Z,88.69
2023-02-03T06:38:28.989Z,88.48
2023-02-03T06:41:30.736Z,88.92
2023-02-03T06:44:32.246Z,89.13
2023-02-03T06:47:35.727Z,88.78
2023-02-03T06:50:37.011Z,88.96
2023-02-03T06:53:40.449Z,88.76
2023-02-03T06:56:41.734Z,88.03
2023-02-03T06:59:43.135Z,87.57
2023-02-03T07:02:47.134Z,88.36
2023-02-03T07:05:48.454Z,88.77
2023-02-03T07:12:12.695Z,86.66
2023-02-03T07:15:15.275Z,88.40
2023-02-03T07:18:35.956Z,88.31
2023-02-03T07:21:39.757Z,88.21
2023-02-03T07:24:41.848Z,87.58
2023-02-03T07:27:44.435Z,87.60
2023-02-03T07:30:48.064Z,87.62
2023-02-03T07:33:49.533Z,87.67
2023-02-03T07:36:50.753Z,87.18
2023-02-03T07:39:53.995Z,87.60
2023-02-03T07:42:57.052Z,87.54
2023-02-03T07:45:58.411Z,88.56
2023-02-03T07:49:00.923Z,87.48
2023-02-03T07:52:03.497Z,87.10
2023-02-03T07:55:06.334Z,87.68
2023-02-03T07:58:08.992Z,87.83
2023-02-03T08:01:12.515Z,87.31
2023-02-03T08:04:16.062Z,87.45
2023-02-03T08:07:17.426Z,87.51
2023-02-03T08:10:20.950Z,87.28
2023-02-03T08:13:22.321Z,87.70
2023-02-03T08:16:23.749Z,87.25
2023-02-03T08:19:26.307Z,87.66
2023-02-03T08:22:27.613Z,87.90
2023-02-03T08:25:30.810Z,87.64
2023-02-03T08:28:32.214Z,87.12
2023-02-03T08:31:35.034Z,87.06
2023-02-03T08:34:36.586Z,88.35
2023-02-03T08:37:37.954Z,87.68
2023-02-03T08:40:41.198Z,88.23
2023-02-03T08:43:42.514Z,87.43
2023-02-03T08:46:45.086Z,85.94
2023-02-03T08:49:46.457Z,86.80
2023-02-03T08:52:47.804Z,87.21
2023-02-03T08:55:52.268Z,86.94
2023-02-03T09:02:17.531Z,87.70
2023-02-03T09:05:20.104Z,88.10
2023-02-03T09:08:21.407Z,87.52
2023-02-03T09:11:24.639Z,87.38
2023-02-03T09:14:27.615Z,87.46
2023-02-03T09:17:28.953Z,87.04
2023-02-03T09:27:12.989Z,86.94
2023-02-03T09:30:14.728Z,87.26
2023-02-03T09:33:15.994Z,87.01
2023-02-03T09:36:17.346Z,87.85
2023-02-03T09:39:18.829Z,86.94
2023-02-03T09:42:40.440Z,86.10
2023-02-03T09:45:42.015Z,87.21
2023-02-03T09:48:48.943Z,87.50
2023-02-03T09:51:57.527Z,86.73
2023-02-03T09:55:03.700Z,87.49
2023-02-03T09:58:12.386Z,86.91
2023-02-03T10:01:17.115Z,86.40
2023-02-03T10:04:28.259Z,86.68
2023-02-03T10:07:40.331Z,86.22
2023-02-03T10:11:08.608Z,86.48
2023-02-03T10:14:27.715Z,86.20
2023-02-03T10:17:34.564Z,86.13
2023-02-03T10:20:39.531Z,85.79
2023-02-03T10:23:44.813Z,85.28
2023-02-03T10:26:46.466Z,84.36
2023-02-03T10:29:53.753Z,84.81
2023-02-03T10:32:57.225Z,84.13
2023-02-03T10:36:09.882Z,84.64
2023-02-03T10:39:20.362Z,82.57
2023-02-03T10:42:22.199Z,81.68
2023-02-03T10:45:24.173Z,79.66
2023-02-03T10:48:25.449Z,80.27
2023-02-03T10:51:29.937Z,78.50
2023-02-03T10:54:33.257Z,77.31
2023-02-03T10:57:37.099Z,76.78
2023-02-03T11:00:39.468Z,76.06
2023-02-03T11:03:42.729Z,74.77
2023-02-03T11:06:55.728Z,73.92
2023-02-03T11:09:57.101Z,73.89
2023-02-03T11:13:12.957Z,74.41
2023-02-03T11:16:18.338Z,73.42
2023-02-03T11:19:21.839Z,73.69
2023-02-03T11:22:29.563Z,73.22
2023-02-03T11:25:32.982Z,74.41
2023-02-03T11:28:35.624Z,73.63
2023-02-03T11:31:38.984Z,73.91
2023-02-03T11:34:46.914Z,71.14
2023-02-03T11:41:17.760Z,69.54
2023-02-03T11:44:23.672Z,68.00
2023-02-03T11:47:25.977Z,67.51
2023-02-03T11:50:32.589Z,65.44
2023-02-03T11:53:56.843Z,64.99
2023-02-03T11:57:11.855Z,63.97
2023-02-03T12:00:26.844Z,64.39
2023-02-03T12:03:43.753Z,65.63
2023-02-03T12:07:33.801Z,63.28
2023-02-03T12:10:46.658Z,64.18
2023-02-03T12:14:16.656Z,64.79
2023-02-03T12:17:41.231Z,64.12
2023-02-03T12:20:59.918Z,62.68
2023-02-03T12:24:09.858Z,63.13
2023-02-03T12:27:23.221Z,59.83
2023-02-03T12:30:28.466Z,60.20
2023-02-03T12:37:04.892Z,58.69
2023-02-03T12:40:15.257Z,58.41
2023-02-03T12:43:26.301Z,59.51
2023-02-03T12:46:30.707Z,59.94
2023-02-03T12:49:42.321Z,61.57
2023-02-03T12:52:49.230Z,65.04
2023-02-03T12:55:57.168Z,67.98
2023-02-03T12:59:04.797Z,69.06
2023-02-03T13:02:18.300Z,70.31
2023-02-03T13:05:26.202Z,69.27
2023-02-03T13:08:33.885Z,73.06
2023-02-03T13:11:42.305Z,73.70
2023-02-03T13:14:48.928Z,74.42
2023-02-03T13:17:57.183Z,73.25
2023-02-03T13:20:59.793Z,72.84
2023-02-03T13:24:03.900Z,71.32
2023-02-03T13:27:23.725Z,70.39
2023-02-03T13:30:52.173Z,70.47
2023-02-03T13:34:17.232Z,70.67
2023-02-03T13:37:42.285Z,71.03
2023-02-03T13:40:54.488Z,71.26
2023-02-03T13:43:58.351Z,71.66
2023-02-03T13:47:02.277Z,71.45
2023-02-03T13:50:06.809Z,72.08
2023-02-03T13:53:18.263Z,71.63
2023-02-03T13:56:24.205Z,71.95
2023-02-03T13:59:40.398Z,72.72
2023-02-03T14:02:53.607Z,72.37
2023-02-03T14:05:56.266Z,71.33
2023-02-03T14:08:59.482Z,71.41
2023-02-03T14:12:21.109Z,71.31
2023-02-03T14:15:32.938Z,69.86
2023-02-03T14:18:43.183Z,70.58
2023-02-03T14:21:49.370Z,71.51
2023-02-03T14:24:54.730Z,71.03
2023-02-03T14:28:00.241Z,70.24
2023-02-03T14:31:16.195Z,69.21
2023-02-03T14:34:17.773Z,69.80
2023-02-03T14:37:23.919Z,70.71
2023-02-03T14:40:36.198Z,69.95
2023-02-03T14:43:43.655Z,68.27
2023-02-03T14:47:08.714Z,67.98
2023-02-03T14:50:22.710Z,68.47
2023-02-03T14:53:40.940Z,67.01
2023-02-03T14:57:07.840Z,66.46
2023-02-03T15:00:32.381Z,66.54
2023-02-03T15:03:35.912Z,65.62
2023-02-03T15:06:39.435Z,65.73
2023-02-03T15:09:46.445Z,65.66
2023-02-03T15:12:49.824Z,66.77
2023-02-03T15:15:54.493Z,66.22
2023-02-03T15:18:58.258Z,67.04
2023-02-03T15:22:01.082Z,66.49
2023-02-03T15:25:11.018Z,66.36
2023-02-03T15:28:15.621Z,66.45
2023-02-03T15:31:22.908Z,67.42
2023-02-03T15:34:28.773Z,66.40
2023-02-03T15:37:39.552Z,67.18
2023-02-03T15:40:44.620Z,68.18
2023-02-03T15:43:49.777Z,67.31
2023-02-03T15:46:55.640Z,68.26
2023-02-03T15:50:07.389Z,67.50
2023-02-03T15:53:17.543Z,67.61
2023-02-03T15:56:22.887Z,68.09
2023-02-03T15:59:30.220Z,68.93
2023-02-03T16:02:39.884Z,68.02
2023-02-03T16:05:45.243Z,68.62
2023-02-03T16:08:48.206Z,68.87
2023-02-03T16:11:50.937Z,68.54
2023-02-03T16:14:54.480Z,68.56
2023-02-03T16:17:57.211Z,69.76
2023-02-03T16:20:58.487Z,69.76
2023-02-03T16:24:00.135Z,69.23
2023-02-03T16:27:20.690Z,69.44
2023-02-03T16:30:42.018Z,70.81
2023-02-03T16:34:05.430Z,69.95
2023-02-03T16:37:30.110Z,69.28
2023-02-03T16:40:49.958Z,70.25
2023-02-03T16:44:09.218Z,71.38
2023-02-03T16:47:41.822Z,70.95
2023-02-03T16:50:52.079Z,71.61
2023-02-03T16:53:53.394Z,72.63
2023-02-03T16:56:58.736Z,70.69
2023-02-03T17:00:00.202Z,70.78
2023-02-03T17:03:03.485Z,70.74
2023-02-03T17:06:07.971Z,69.97
2023-02-03T17:09:09.451Z,69.01
2023-02-03T17:12:11.043Z,69.75
2023-02-03T17:15:12.357Z,69.49
2023-02-03T17:18:15.061Z,67.88
2023-02-03T17:21:20.184Z,67.60
2023-02-03T17:24:21.504Z,66.98
2023-02-03T17:27:24.103Z,67.71
2023-02-03T17:30:25.699Z,66.76
2023-02-03T17:33:27.961Z,67.43
2023-02-03T17:36:29.915Z,67.28
2023-02-03T17:56:08.155Z,68.30
2023-02-03T17:59:09.551Z,68.17
2023-02-03T18:02:10.913Z,68.59
2023-02-03T18:05:13.458Z,68.78
2023-02-03T18:08:16.700Z,68.33
2023-02-03T18:11:22.772Z,68.86
2023-02-03T18:14:25.312Z,67.78
2023-02-03T18:17:26.619Z,68.88
2023-02-03T18:20:29.350Z,68.28
2023-02-03T18:23:31.602Z,68.01
2023-02-03T18:26:37.472Z,67.59
2023-02-03T18:29:40.177Z,68.72
2023-02-03T18:32:42.760Z,67.84
2023-02-03T18:35:45.326Z,67.09
2023-02-03T18:38:49.127Z,67.57
2023-02-03T18:41:50.434Z,67.85
2023-02-03T18:44:52.987Z,68.33
2023-02-03T18:47:54.540Z,68.04
2023-02-03T18:50:56.192Z,67.32
2023-02-03T18:53:59.107Z,67.86
2023-02-03T18:57:02.050Z,68.13
2023-02-03T19:00:04.037Z,67.42
2023-02-03T19:03:05.580Z,67.05
2023-02-03T19:06:09.118Z,67.15
2023-02-03T19:09:14.509Z,67.42
2023-02-03T19:12:15.813Z,68.61
2023-02-03T19:15:18.560Z,67.55
2023-02-03T19:18:19.921Z,67.51
2023-02-03T19:21:21.324Z,68.56
2023-02-03T19:24:25.370Z,67.78
2023-02-03T19:27:26.717Z,68.45
2023-02-03T19:30:29.539Z,68.59
2023-02-03T19:33:32.236Z,69.45
2023-02-03T19:36:33.541Z,68.92
2023-02-03T19:39:36.757Z,68.96
2023-02-03T19:42:38.156Z,70.01
2023-02-03T19:45:40.717Z,70.68
2023-02-03T19:48:43.355Z,70.01
2023-02-03T19:55:08.324Z,71.12
2023-02-03T19:58:10.865Z,70.99
2023-02-03T20:01:12.166Z,71.69
2023-02-03T20:04:13.547Z,70.23
2023-02-03T20:07:16.846Z,70.90
2023-02-03T20:10:19.230Z,71.64
2023-02-03T20:13:20.541Z,71.76
2023-02-03T20:16:21.913Z,72.42
2023-02-03T20:19:24.572Z,71.69
2023-02-03T20:22:27.050Z,73.21
2023-02-03T20:25:29.011Z,73.42
2023-02-03T20:28:31.477Z,74.02
2023-02-03T20:31:32.938Z,73.78
2023-02-03T20:34:35.560Z,74.21
2023-02-03T20:37:38.157Z,75.71
2023-02-03T20:40:40.079Z,75.55
2023-02-03T20:43:44.700Z,75.11
2023-02-03T20:46:46.075Z,76.67
2023-02-03T20:49:49.931Z,77.91
2023-02-03T20:52:52.416Z,77.88
2023-02-03T20:55:57.712Z,77.66
2023-02-03T20:59:00.194Z,77.93
2023-02-03T21:02:07.070Z,77.95
2023-02-03T21:05:23.930Z,79.05
2023-02-03T21:08:27.516Z,78.27
2023-02-03T21:11:30.114Z,77.33
2023-02-03T21:14:38.674Z,78.55
2023-02-03T21:17:39.934Z,74.14
2023-02-03T21:20:44.323Z,74.26
2023-02-03T21:23:47.585Z,74.16
2023-02-03T21:26:50.976Z,73.79
2023-02-03T21:29:55.809Z,73.18
2023-02-03T21:32:58.985Z,72.60
2023-02-03T21:36:01.591Z,70.29
2023-02-03T21:39:10.462Z,71.01
2023-02-03T21:42:40.375Z,70.55
2023-02-03T21:45:44.130Z,70.25
2023-02-03T21:48:49.869Z,70.68
2023-02-03T21:51:51.224Z,71.46
2023-02-03T21:54:53.083Z,71.29
2023-02-03T21:57:56.294Z,71.94
2023-02-03T22:00:59.532Z,71.22
2023-02-03T22:04:03.128Z,72.50
2023-02-03T22:07:15.709Z,73.42
2023-02-03T22:10:18.248Z,72.43
2023-02-03T22:16:41.218Z,74.72
2023-02-03T22:19:42.574Z,73.25
2023-02-03T22:22:45.041Z,73.30
2023-02-03T22:25:46.576Z,73.54
2023-02-03T22:28:49.861Z,73.18
2023-02-03T22:31:51.239Z,73.70
2023-02-03T22:34:53.801Z,72.02
2023-02-03T22:37:55.113Z,73.50
2023-02-03T22:40:57.620Z,71.73
2023-02-03T22:44:00.837Z,72.47
2023-02-03T22:47:02.166Z,72.12
2023-02-03T22:50:04.728Z,72.65
2023-02-03T22:53:09.610Z,71.89
2023-02-03T22:56:10.919Z,72.29
2023-02-03T22:59:14.061Z,72.25
2023-02-03T23:02:15.470Z,72.53
2023-02-03T23:05:17.708Z,73.57
2023-02-03T23:08:19.017Z,73.35
2023-02-03T23:11:21.413Z,73.88
2023-02-03T23:14:24.472Z,73.32
2023-02-03T23:17:25.745Z,73.05
2023-02-03T23:20:28.422Z,73.92
2023-02-03T23:23:30.924Z,74.02
2023-02-03T23:26:32.580Z,72.50
2023-02-03T23:29:38.153Z,72.66
2023-02-03T23:32:39.598Z,73.41
2023-02-03T23:35:47.906Z,72.81
2023-02-03T23:38:50.346Z,72.70
2023-02-03T23:41:51.655Z,71.78
2023-02-03T23:44:54.736Z,72.49
2023-02-03T23:47:56.082Z,72.52
2023-02-03T23:50:58.511Z,72.66
2023-02-03T23:54:00.925Z,71.37
2023-02-03T23:57:04.025Z,71.83
